Slotergracht — PDBP — position and weather

sailwx.info

Track history (hours):
 
Tides and Currents Weather Stations Pressure Air Temp Water Temp Dewpoint Dewpoint Depression Visibility Wind Speed Wind Dir Waves Ship Positions

Slotergracht

Last reported at 2015-Mar-28 03:33 UTC. Time now 2015-Mar-28 04:05 UTC.
Position N 39°51' W 075°20'.

Length 168 m; beam 25 m.

Type: Cargo ship. MMSI: 246456000.

Date/timePositionNaut miles runAvg speedWind from/ knotsBaromVisibWave heightAir tempDewpointWater temp
2015-Mar-28 03:33N 39°51' W 075°20'9 9.4
2015-Mar-28 02:33N 39°54' W 075°08'1 1.2
2015-Mar-28 01:31N 39°55' W 075°08'0 0.0
2015-Mar-28 00:31N 39°55' W 075°08'0 0.0
2015-Mar-27 23:31N 39°55' W 075°08'0 0.0
2015-Mar-27 22:31N 39°55' W 075°08'0 0.0
2015-Mar-27 21:31N 39°55' W 075°08'0 0.0
2015-Mar-27 20:31N 39°55' W 075°08'0 0.0
2015-Mar-27 19:31N 39°55' W 075°08'0 0.0
2015-Mar-27 18:31N 39°55' W 075°08'0 0.0
2015-Mar-27 17:31N 39°55' W 075°08'0 0.0
2015-Mar-27 16:31N 39°55' W 075°08'0 0.0
2015-Mar-27 15:31N 39°55' W 075°08'0 0.0
2015-Mar-27 14:34N 39°55' W 075°08'0 0.0
2015-Mar-27 13:33N 39°55' W 075°08'0 0.0
2015-Mar-27 12:33N 39°55' W 075°08'0 0.0
2015-Mar-27 11:33N 39°55' W 075°08'0 0.0
2015-Mar-27 10:33N 39°55' W 075°08'0 0.0
2015-Mar-27 09:33N 39°55' W 075°08'0 0.0
2015-Mar-27 08:33N 39°55' W 075°08'0 0.0
2015-Mar-27 07:33N 39°55' W 075°08'0 0.0
2015-Mar-27 06:33N 39°55' W 075°08'0 0.0
2015-Mar-27 05:33N 39°55' W 075°08'0 0.0
2015-Mar-27 04:33N 39°55' W 075°08'0 0.0
2015-Mar-27 03:33N 39°55' W 075°08'0 0.0
2015-Mar-27 02:33N 39°55' W 075°08'0 0.0
2015-Mar-27 01:33N 39°55' W 075°08'0 0.0
2015-Mar-27 00:33N 39°55' W 075°08'0 0.0
2015-Mar-26 23:33N 39°55' W 075°08'0 0.0
2015-Mar-26 22:33N 39°55' W 075°08'0 0.0
2015-Mar-26 21:33N 39°55' W 075°08'0 0.0
2015-Mar-26 20:33N 39°55' W 075°08'0 0.0
2015-Mar-26 19:33N 39°55' W 075°08'0 0.0
2015-Mar-26 18:33N 39°55' W 075°08'0 0.0
2015-Mar-26 17:33N 39°55' W 075°08'0 0.0
2015-Mar-26 16:33N 39°55' W 075°08'0 0.0
2015-Mar-26 15:33N 39°55' W 075°08'0 0.0
2015-Mar-26 14:33N 39°55' W 075°08'0 0.0
2015-Mar-26 13:33N 39°55' W 075°08'0 0.0
2015-Mar-26 12:33N 39°55' W 075°08'2 2.0
2015-Mar-26 11:33N 39°53' W 075°09'9 8.7
2015-Mar-26 10:33N 39°51' W 075°20'1010.4
2015-Mar-26 09:33N 39°44' W 075°30'1111.1
2015-Mar-26 08:33N 39°33' W 075°32'1211.9
2015-Mar-26 07:33N 39°22' W 075°27'1514.7
2015-Mar-26 06:34N 39°10' W 075°16'1414.4
2015-Mar-26 05:33N 38°58' W 075°07'1010.5
2015-Mar-26 04:33N 38°48' W 075°03'6 5.8
2015-Mar-26 03:33N 38°44' W 074°57'5 5.2
2015-Mar-26 02:33N 38°40' W 074°53'  
Track history (hours):
 
Tides and Currents Weather Stations Pressure Air Temp Water Temp Dewpoint Dewpoint Depression Visibility Wind Speed Wind Dir Waves Ship Positions

Slotergracht

Last reported at 2015-Mar-28 03:33 UTC. Time now 2015-Mar-28 04:05 UTC.
Position N 39°51' W 075°20'.

Length 168 m; beam 25 m.

Type: Cargo ship. MMSI: 246456000.

Date/timePositionNaut miles runAvg speedWind from/ knotsBaromVisibWave heightAir tempDewpointWater temp
2015-Mar-28 03:33N 39°51' W 075°20'9 9.4
2015-Mar-28 02:33N 39°54' W 075°08'1 1.2
2015-Mar-28 01:31N 39°55' W 075°08'0 0.0
2015-Mar-28 00:31N 39°55' W 075°08'0 0.0
2015-Mar-27 23:31N 39°55' W 075°08'0 0.0
2015-Mar-27 22:31N 39°55' W 075°08'0 0.0
2015-Mar-27 21:31N 39°55' W 075°08'0 0.0
2015-Mar-27 20:31N 39°55' W 075°08'0 0.0
2015-Mar-27 19:31N 39°55' W 075°08'0 0.0
2015-Mar-27 18:31N 39°55' W 075°08'0 0.0
2015-Mar-27 17:31N 39°55' W 075°08'0 0.0
2015-Mar-27 16:31N 39°55' W 075°08'0 0.0
2015-Mar-27 15:31N 39°55' W 075°08'0 0.0
2015-Mar-27 14:34N 39°55' W 075°08'0 0.0
2015-Mar-27 13:33N 39°55' W 075°08'0 0.0
2015-Mar-27 12:33N 39°55' W 075°08'0 0.0
2015-Mar-27 11:33N 39°55' W 075°08'0 0.0
2015-Mar-27 10:33N 39°55' W 075°08'0 0.0
2015-Mar-27 09:33N 39°55' W 075°08'0 0.0
2015-Mar-27 08:33N 39°55' W 075°08'0 0.0
2015-Mar-27 07:33N 39°55' W 075°08'0 0.0
2015-Mar-27 06:33N 39°55' W 075°08'0 0.0
2015-Mar-27 05:33N 39°55' W 075°08'0 0.0
2015-Mar-27 04:33N 39°55' W 075°08'0 0.0
2015-Mar-27 03:33N 39°55' W 075°08'0 0.0
2015-Mar-27 02:33N 39°55' W 075°08'0 0.0
2015-Mar-27 01:33N 39°55' W 075°08'0 0.0
2015-Mar-27 00:33N 39°55' W 075°08'0 0.0
2015-Mar-26 23:33N 39°55' W 075°08'0 0.0
2015-Mar-26 22:33N 39°55' W 075°08'0 0.0
2015-Mar-26 21:33N 39°55' W 075°08'0 0.0
2015-Mar-26 20:33N 39°55' W 075°08'0 0.0
2015-Mar-26 19:33N 39°55' W 075°08'0 0.0
2015-Mar-26 18:33N 39°55' W 075°08'0 0.0
2015-Mar-26 17:33N 39°55' W 075°08'0 0.0
2015-Mar-26 16:33N 39°55' W 075°08'0 0.0
2015-Mar-26 15:33N 39°55' W 075°08'0 0.0
2015-Mar-26 14:33N 39°55' W 075°08'0 0.0
2015-Mar-26 13:33N 39°55' W 075°08'0 0.0
2015-Mar-26 12:33N 39°55' W 075°08'2 2.0
2015-Mar-26 11:33N 39°53' W 075°09'9 8.7
2015-Mar-26 10:33N 39°51' W 075°20'1010.4
2015-Mar-26 09:33N 39°44' W 075°30'1111.1
2015-Mar-26 08:33N 39°33' W 075°32'1211.9
2015-Mar-26 07:33N 39°22' W 075°27'1514.7
2015-Mar-26 06:34N 39°10' W 075°16'1414.4
2015-Mar-26 05:33N 38°58' W 075°07'1010.5
2015-Mar-26 04:33N 38°48' W 075°03'6 5.8
2015-Mar-26 03:33N 38°44' W 074°57'5 5.2
2015-Mar-26 02:33N 38°40' W 074°53'  

Dump ship's entire track history